Time;durP1;ratioP1;P1;durP2;ratioP2;P2;SDS_P1;SDS_P2;PMS_P1;PMS_P2;Temp;Humidity;BMP_temperature;BMP_pressure;BME280_temperature;BME280_humidity;BME280_pressure;Samples;Min_cycle;Max_cycle;Signal;HPM_P1;HPM_P2
2023/01/02 00:00:14;;;;;;;11.75;2.28;;;9.70;99.90;;;;;;4250744;27;20051;-87
2023/01/02 00:02:14;;;;;;;7.28;2.20;;;9.70;99.90;;;;;;4267937;27;20039;-88
2023/01/02 00:04:15;;;;;;;4.60;1.88;;;8.00;99.90;;;;;;4268926;27;20118;-87
2023/01/02 00:06:17;;;;;;;7.07;2.05;;;9.60;99.90;;;;;;4233679;28;20554;-87
2023/01/02 00:08:17;;;;;;;4.88;2.00;;;9.90;99.90;;;;;;4232920;28;20051;-87
2023/01/02 00:10:18;;;;;;;6.43;2.30;;;9.60;99.90;;;;;;4250471;27;20051;-88
2023/01/02 00:12:19;;;;;;;6.80;1.90;;;8.60;99.90;;;;;;4267730;27;20058;-87
2023/01/02 00:14:20;;;;;;;7.85;1.80;;;9.60;99.90;;;;;;4269052;27;20072;-87
2023/01/02 00:16:20;;;;;;;4.65;1.75;;;9.60;99.90;;;;;;4233387;28;20081;-88
2023/01/02 00:18:21;;;;;;;5.45;1.90;;;9.60;99.90;;;;;;4250012;27;20419;-87
2023/01/02 00:20:22;;;;;;;8.05;2.58;;;9.80;99.90;;;;;;4268932;27;20402;-88
2023/01/02 00:22:24;;;;;;;4.95;2.17;;;9.70;99.90;;;;;;4250094;27;20055;-87
2023/01/02 00:24:24;;;;;;;5.78;2.47;;;9.60;99.90;;;;;;4233108;28;20052;-87
2023/01/02 00:26:25;;;;;;;9.00;2.45;;;9.70;99.90;;;;;;4249255;27;20464;-87
2023/01/02 00:28:29;;;;;;;8.65;2.63;;;9.70;99.90;;;;;;4225904;28;20408;-88
2023/01/02 00:30:29;;;;;;;6.63;3.00;;;9.60;99.90;;;;;;4216104;28;20048;-88
2023/01/02 00:32:36;;;;;;;7.22;3.33;;;9.70;99.90;;;;;;4251220;27;20384;-88
2023/01/02 00:34:38;;;;;;;5.95;3.25;;;9.70;99.90;;;;;;4233198;28;20055;-88
2023/01/02 00:36:38;;;;;;;5.95;3.25;;;9.70;99.90;;;;;;4232418;28;20044;-87
2023/01/02 00:38:39;;;;;;;7.05;3.60;;;9.70;99.90;;;;;;4233024;28;20043;-88
2023/01/02 00:40:41;;;;;;;7.70;3.83;;;9.70;99.90;;;;;;4215899;28;20146;-87
2023/01/02 00:42:44;;;;;;;10.48;4.18;;;9.80;99.90;;;;;;4216314;28;20048;-87
2023/01/02 00:44:45;;;;;;;8.25;3.88;;;9.80;99.90;;;;;;4233292;28;20046;-87
2023/01/02 00:46:45;;;;;;;6.40;3.72;;;9.80;99.90;;;;;;4232920;28;20411;-87
2023/01/02 00:48:46;;;;;;;7.53;4.22;;;9.80;99.90;;;;;;4234010;28;20139;-87
2023/01/02 00:50:48;;;;;;;9.15;4.35;;;9.80;99.90;;;;;;4233121;28;20043;-87
2023/01/02 00:52:49;;;;;;;8.13;3.88;;;9.90;99.90;;;;;;4217135;28;20127;-87
2023/01/02 00:54:50;;;;;;;13.80;5.05;;;9.80;99.90;;;;;;4250970;27;20483;-87
2023/01/02 00:56:52;;;;;;;11.15;4.68;;;10.00;99.90;;;;;;4217789;28;20103;-87
2023/01/02 00:58:52;;;;;;;9.30;4.28;;;8.40;99.90;;;;;;4233655;28;20044;-87
2023/01/02 01:00:53;;;;;;;8.77;4.03;;;9.90;99.90;;;;;;4224248;28;20024;-87
2023/01/02 01:02:56;;;;;;;7.68;4.13;;;9.90;99.90;;;;;;4268336;27;20055;-87
2023/01/02 01:04:56;;;;;;;9.40;4.65;;;9.90;99.90;;;;;;4270392;27;20031;-87
2023/01/02 01:06:57;;;;;;;8.77;4.13;;;10.00;99.90;;;;;;4251395;28;20047;-88
2023/01/02 01:08:59;;;;;;;11.00;4.25;;;9.90;99.90;;;;;;4269561;27;20023;-88
2023/01/02 01:11:05;;;;;;;7.90;3.97;;;9.90;99.90;;;;;;4217486;28;20068;-87
2023/01/02 01:13:06;;;;;;;7.38;4.28;;;10.20;99.90;;;;;;4250743;27;20039;-87
2023/01/02 01:15:07;;;;;;;7.40;3.47;;;10.10;99.90;;;;;;4215549;28;20048;-88
2023/01/02 01:17:07;;;;;;;7.38;3.22;;;10.00;99.90;;;;;;4250917;27;20383;-87
2023/01/02 01:19:08;;;;;;;8.38;4.00;;;10.10;99.90;;;;;;4232461;28;20086;-87
2023/01/02 01:21:15;;;;;;;6.22;3.10;;;10.10;99.90;;;;;;4216641;28;20051;-88
2023/01/02 01:23:16;;;;;;;9.40;2.97;;;10.10;99.90;;;;;;4231941;28;20080;-88
2023/01/02 01:25:18;;;;;;;5.22;2.50;;;10.20;99.90;;;;;;4248715;27;20078;-88
2023/01/02 01:27:19;;;;;;;5.15;2.38;;;10.20;99.90;;;;;;4267052;27;20117;-87
2023/01/02 01:29:19;;;;;;;6.45;2.85;;;10.10;99.90;;;;;;4248944;27;20571;-88
2023/01/02 01:31:21;;;;;;;4.65;2.53;;;10.20;99.90;;;;;;4267404;27;20042;-87
2023/01/02 01:33:22;;;;;;;7.80;2.75;;;10.10;99.90;;;;;;4248934;27;20414;-87
2023/01/02 01:35:23;;;;;;;6.60;2.42;;;10.20;99.90;;;;;;4249071;27;20046;-88
2023/01/02 01:37:24;;;;;;;4.88;2.88;;;10.20;99.90;;;;;;4266648;27;20035;-87
2023/01/02 01:39:26;;;;;;;8.45;2.58;;;10.20;99.90;;;;;;4249121;27;20039;-88
2023/01/02 01:41:27;;;;;;;7.22;3.30;;;10.20;99.90;;;;;;4249015;27;20507;-87
2023/01/02 01:43:50;;;;;;;7.47;3.10;;;10.20;99.90;;;;;;4248776;27;20046;-88
2023/01/02 01:45:52;;;;;;;5.72;3.10;;;10.30;99.90;;;;;;4249415;27;20044;-88
2023/01/02 01:47:57;;;;;;;5.88;2.88;;;10.30;99.90;;;;;;4231548;28;20087;-88
2023/01/02 01:50:16;;;;;;;8.05;3.22;;;10.30;99.90;;;;;;4231653;28;20047;-88
2023/01/02 01:52:22;;;;;;;7.90;3.05;;;10.40;99.90;;;;;;4267096;27;20047;-87
2023/01/02 01:54:40;;;;;;;5.32;3.00;;;10.40;99.90;;;;;;4266516;27;20055;-88
2023/01/02 01:56:49;;;;;;;8.10;3.63;;;10.30;99.90;;;;;;4266823;27;20463;-88
2023/01/02 01:58:51;;;;;;;7.97;4.07;;;10.40;99.90;;;;;;4221237;28;20051;-88
2023/01/02 02:00:52;;;;;;;7.35;3.60;;;10.30;99.90;;;;;;4231845;28;20095;-87
2023/01/02 02:02:59;;;;;;;6.80;3.55;;;10.30;99.90;;;;;;4250002;27;20051;-88
2023/01/02 02:05:04;;;;;;;10.57;3.90;;;10.30;99.90;;;;;;4249664;27;20042;-87
2023/01/02 02:07:04;;;;;;;8.65;4.25;;;10.40;99.90;;;;;;4214325;28;20076;-87
2023/01/02 02:09:12;;;;;;;10.43;3.90;;;10.40;99.90;;;;;;4231418;28;20044;-87
2023/01/02 02:11:13;;;;;;;8.80;3.65;;;10.30;99.90;;;;;;4248347;27;20112;-87
2023/01/02 02:13:16;;;;;;;8.00;3.40;;;10.40;99.90;;;;;;4247959;27;20518;-88
2023/01/02 02:15:20;;;;;;;10.57;5.22;;;10.60;99.90;;;;;;4232077;28;20047;-88
2023/01/02 02:17:45;;;;;;;5.78;3.80;;;9.60;99.90;;;;;;4248393;27;20039;-88
2023/01/02 02:19:48;;;;;;;7.93;4.07;;;10.50;99.90;;;;;;4243438;27;20059;-87
2023/01/02 02:21:55;;;;;;;11.15;4.28;;;10.40;99.90;;;;;;4248326;27;20039;-88
2023/01/02 02:24:34;;;;;;;8.45;4.40;;;10.20;99.90;;;;;;4247697;27;20078;-88
2023/01/02 02:26:53;;;;;;;7.05;4.03;;;10.50;99.90;;;;;;4216515;27;20044;-88
2023/01/02 02:28:59;;;;;;;7.45;4.10;;;10.40;99.90;;;;;;4231004;28;20055;-88
2023/01/02 02:31:00;;;;;;;8.98;3.97;;;;;;;;;;4248906;27;20399;-87
2023/01/02 02:33:04;;;;;;;9.10;4.10;;;10.50;99.90;;;;;;4248735;27;20112;-88
2023/01/02 02:35:29;;;;;;;8.90;4.22;;;10.50;99.90;;;;;;4249593;27;20449;-87
2023/01/02 02:37:35;;;;;;;8.45;4.03;;;9.70;99.90;;;;;;4248580;27;20453;-87
2023/01/02 02:39:59;;;;;;;8.82;4.07;;;10.50;99.90;;;;;;4249181;27;20114;-87
2023/01/02 02:42:45;;;;;;;7.15;4.18;;;10.50;99.90;;;;;;4248739;27;20035;-87
2023/01/02 02:45:05;;;;;;;9.48;4.03;;;10.50;99.90;;;;;;4216815;27;20058;-87
2023/01/02 02:47:34;;;;;;;9.00;4.28;;;10.50;99.90;;;;;;4247731;27;20073;-87
2023/01/02 02:50:00;;;;;;;7.10;3.88;;;10.60;99.90;;;;;;4247521;27;20039;-87
2023/01/02 02:52:10;;;;;;;7.30;4.03;;;10.60;99.90;;;;;;4247327;27;20469;-87
2023/01/02 02:54:41;;;;;;;9.38;3.92;;;10.60;99.90;;;;;;4231437;28;20052;-87
2023/01/02 02:56:43;;;;;;;13.10;4.20;;;10.60;99.90;;;;;;4242289;27;20063;-87
2023/01/02 02:58:45;;;;;;;8.90;3.70;;;10.60;99.90;;;;;;4247639;27;20058;-88
2023/01/02 03:00:46;;;;;;;10.10;4.13;;;10.60;99.90;;;;;;4247801;27;20043;-87
2023/01/02 03:02:47;;;;;;;8.02;4.97;;;10.60;99.90;;;;;;4248090;27;20519;-88
2023/01/02 03:04:59;;;;;;;9.02;4.57;;;10.60;99.90;;;;;;4247845;27;20075;-87
2023/01/02 03:07:20;;;;;;;7.18;4.13;;;10.70;99.90;;;;;;4247584;27;20514;-87
2023/01/02 03:09:37;;;;;;;9.23;4.28;;;10.70;99.90;;;;;;4247259;27;20058;-87
2023/01/02 03:11:59;;;;;;;10.57;4.25;;;10.70;99.90;;;;;;4239714;28;20139;-87
2023/01/02 03:14:09;;;;;;;6.57;4.55;;;10.70;99.90;;;;;;4247111;28;20067;-87
2023/01/02 03:16:25;;;;;;;9.07;4.45;;;10.70;99.90;;;;;;4230663;28;20044;-87
2023/01/02 03:19:03;;;;;;;6.78;3.88;;;10.70;99.90;;;;;;4247619;28;20127;-87
2023/01/02 03:21:16;;;;;;;7.80;4.40;;;10.70;99.90;;;;;;4238197;28;20062;-87
2023/01/02 03:23:22;;;;;;;11.77;4.75;;;10.70;99.90;;;;;;4230763;28;20119;-87
2023/01/02 03:25:23;;;;;;;10.10;4.63;;;10.70;99.90;;;;;;4231126;28;20059;-88
2023/01/02 03:27:31;;;;;;;9.63;4.75;;;10.70;99.90;;;;;;4261962;27;20042;-88
2023/01/02 03:29:38;;;;;;;10.23;4.28;;;10.80;99.90;;;;;;4247279;28;20093;-87
2023/01/02 03:31:43;;;;;;;14.15;4.55;;;10.80;99.90;;;;;;4265956;27;20501;-86
2023/01/02 03:33:52;;;;;;;7.18;4.07;;;10.80;99.90;;;;;;4265601;27;20543;-87
2023/01/02 03:35:59;;;;;;;8.53;3.77;;;10.80;99.90;;;;;;4265436;27;20073;-87
2023/01/02 03:38:04;;;;;;;8.00;4.05;;;10.80;99.90;;;;;;4247484;28;20296;-87
2023/01/02 03:40:12;;;;;;;8.45;4.15;;;10.80;99.90;;;;;;4230291;28;20545;-87
2023/01/02 03:42:24;;;;;;;11.52;4.35;;;10.80;99.90;;;;;;4265871;27;20585;-87
2023/01/02 03:44:33;;;;;;;10.73;4.65;;;10.80;99.90;;;;;;4260922;27;20047;-88
2023/01/02 03:46:50;;;;;;;11.73;5.10;;;10.90;99.90;;;;;;4247051;28;20489;-87
2023/01/02 03:49:00;;;;;;;9.98;4.78;;;10.80;99.90;;;;;;4246983;28;20055;-87
2023/01/02 03:51:03;;;;;;;7.45;4.60;;;10.80;99.90;;;;;;4265260;27;20491;-88
2023/01/02 03:53:04;;;;;;;9.55;4.82;;;10.90;99.90;;;;;;4247268;28;20473;-87
2023/01/02 03:55:06;;;;;;;10.65;4.97;;;10.80;99.90;;;;;;4247366;28;20047;-87
2023/01/02 03:57:11;;;;;;;9.35;4.85;;;10.90;99.90;;;;;;4247660;28;20054;-87
2023/01/02 03:59:35;;;;;;;13.88;5.05;;;10.80;99.90;;;;;;4247445;28;20062;-87
2023/01/02 04:02:05;;;;;;;10.27;4.97;;;10.90;99.90;;;;;;4246958;28;20454;-87
2023/01/02 04:04:23;;;;;;;15.13;5.70;;;10.90;99.90;;;;;;4247618;28;20122;-87
2023/01/02 04:06:34;;;;;;;11.40;5.03;;;10.90;99.90;;;;;;4265307;27;20479;-87
2023/01/02 04:09:10;;;;;;;12.75;6.03;;;10.90;99.90;;;;;;4265323;27;20050;-87
2023/01/02 04:11:14;;;;;;;12.07;5.47;;;10.90;99.90;;;;;;4229148;28;20124;-87
2023/01/02 04:13:20;;;;;;;13.02;5.88;;;10.90;99.90;;;;;;4230511;28;20075;-87
2023/01/02 04:15:26;;;;;;;19.75;8.38;;;10.90;99.90;;;;;;4247233;28;20051;-88
2023/01/02 04:17:30;;;;;;;17.77;6.85;;;10.90;99.90;;;;;;4246470;27;20549;-88
2023/01/02 04:19:45;;;;;;;17.23;7.22;;;10.90;99.90;;;;;;4250256;27;20126;-87
2023/01/02 04:21:51;;;;;;;13.48;6.32;;;11.00;99.90;;;;;;4251381;27;20045;-87
2023/01/02 04:24:13;;;;;;;15.93;6.28;;;11.00;99.90;;;;;;4249834;27;20403;-87
2023/01/02 04:26:51;;;;;;;13.65;5.90;;;11.00;99.90;;;;;;4249978;27;20050;-87
2023/01/02 04:28:52;;;;;;;13.60;6.22;;;11.00;99.90;;;;;;4220213;28;20051;-87
2023/01/02 04:31:10;;;;;;;16.38;6.80;;;11.00;99.90;;;;;;4233494;28;20039;-87
2023/01/02 04:33:13;;;;;;;11.27;6.20;;;11.00;99.90;;;;;;4251393;27;20048;-88
2023/01/02 04:35:18;;;;;;;18.05;6.85;;;11.00;99.90;;;;;;4249458;27;20043;-87
2023/01/02 04:37:40;;;;;;;14.85;6.43;;;11.00;99.90;;;;;;4256631;27;20047;-87
2023/01/02 04:39:41;;;;;;;18.75;6.35;;;11.00;99.90;;;;;;4267316;27;20070;-88
2023/01/02 04:41:42;;;;;;;12.80;6.15;;;11.00;99.90;;;;;;4247589;28;20047;-87
2023/01/02 04:43:44;;;;;;;14.75;6.30;;;11.00;99.90;;;;;;4269186;27;20027;-87
2023/01/02 04:45:49;;;;;;;18.83;7.47;;;11.00;99.90;;;;;;4271130;27;20037;-87
2023/01/02 04:47:50;;;;;;;14.25;6.78;;;11.00;99.90;;;;;;4271652;27;20105;-87
2023/01/02 04:49:51;;;;;;;14.85;7.00;;;11.00;99.90;;;;;;4271680;27;20019;-87
2023/01/02 04:51:51;;;;;;;19.95;7.10;;;11.00;99.90;;;;;;4271095;27;20054;-87
2023/01/02 04:53:53;;;;;;;15.20;6.43;;;11.00;99.90;;;;;;4270588;27;20062;-87
2023/01/02 04:55:57;;;;;;;15.27;6.80;;;11.00;99.90;;;;;;4269699;27;20031;-87
2023/01/02 04:57:57;;;;;;;13.35;6.95;;;11.00;99.90;;;;;;4252771;28;20039;-87
2023/01/02 04:59:58;;;;;;;16.65;7.70;;;11.00;99.90;;;;;;4270505;27;20057;-86
2023/01/02 05:01:59;;;;;;;14.55;7.75;;;11.00;99.90;;;;;;4242803;28;20078;-87
2023/01/02 05:04:01;;;;;;;15.73;6.65;;;11.00;99.90;;;;;;4254424;27;20047;-87
2023/01/02 05:06:01;;;;;;;12.18;6.30;;;11.00;99.90;;;;;;4255424;27;20475;-87
2023/01/02 05:08:02;;;;;;;17.02;6.60;;;11.00;99.90;;;;;;4251031;27;20061;-88
2023/01/02 05:10:04;;;;;;;15.48;6.47;;;11.00;99.90;;;;;;4249533;27;20035;-87
2023/01/02 05:12:05;;;;;;;12.88;6.03;;;11.00;99.90;;;;;;4264862;27;20137;-88
2023/01/02 05:14:07;;;;;;;12.00;5.60;;;11.00;99.90;;;;;;4249536;27;20081;-87
2023/01/02 05:16:08;;;;;;;13.63;5.18;;;11.00;99.90;;;;;;4249077;27;20035;-87
2023/01/02 05:18:10;;;;;;;14.15;5.63;;;11.00;99.90;;;;;;4249296;27;20050;-88
2023/01/02 05:20:12;;;;;;;14.63;5.40;;;11.00;99.90;;;;;;4268079;27;20082;-88
2023/01/02 05:24:32;;;;;;;9.65;4.75;;;11.00;99.90;;;;;;4266742;27;20062;-87
2023/01/02 05:26:33;;;;;;;8.45;4.57;;;11.00;99.90;;;;;;4249262;27;20046;-88
2023/01/02 05:28:36;;;;;;;10.25;4.47;;;11.00;99.90;;;;;;4267500;27;20043;-88
2023/01/02 05:30:37;;;;;;;8.40;3.90;;;11.00;99.90;;;;;;4248707;27;20051;-88
2023/01/02 05:32:38;;;;;;;12.00;4.25;;;11.00;99.90;;;;;;4232244;28;20051;-88
2023/01/02 05:34:40;;;;;;;4.97;3.33;;;11.00;99.90;;;;;;4266896;27;20526;-88
2023/01/02 05:36:41;;;;;;;6.18;3.85;;;11.00;99.90;;;;;;4248949;27;20076;-87
2023/01/02 05:38:42;;;;;;;5.68;3.80;;;11.00;99.90;;;;;;4248637;27;20131;-87
2023/01/02 05:40:42;;;;;;;5.80;3.05;;;11.00;99.90;;;;;;4267524;27;20047;-88
2023/01/02 05:42:43;;;;;;;7.68;3.00;;;11.00;99.90;;;;;;4266808;27;20380;-88
2023/01/02 05:44:45;;;;;;;5.88;2.92;;;11.20;99.90;;;;;;4248853;27;20047;-87
2023/01/02 05:46:46;;;;;;;5.75;3.10;;;11.00;99.90;;;;;;4267114;27;20541;-88
2023/01/02 05:48:47;;;;;;;5.70;3.08;;;11.10;99.90;;;;;;4267302;27;20039;-88
2023/01/02 05:50:49;;;;;;;6.63;3.22;;;11.10;99.90;;;;;;4232124;28;20040;-88
2023/01/02 05:52:50;;;;;;;5.60;3.42;;;11.10;99.90;;;;;;4248817;27;20035;-87
2023/01/02 05:54:50;;;;;;;6.85;3.45;;;11.10;99.90;;;;;;4266966;27;20124;-87
2023/01/02 05:56:52;;;;;;;6.72;3.20;;;11.00;99.90;;;;;;4266597;27;20440;-87
2023/01/02 05:58:53;;;;;;;6.28;3.47;;;11.00;99.90;;;;;;4266710;27;20042;-87
2023/01/02 06:00:54;;;;;;;5.75;3.50;;;11.00;99.90;;;;;;4226322;28;20043;-87
2023/01/02 06:02:55;;;;;;;6.90;3.33;;;11.00;99.90;;;;;;4248583;27;20069;-86
2023/01/02 06:04:56;;;;;;;6.57;3.85;;;11.00;99.90;;;;;;4248475;27;20039;-87
2023/01/02 06:06:57;;;;;;;7.13;3.70;;;11.00;99.90;;;;;;4231009;28;20059;-87
2023/01/02 06:09:00;;;;;;;5.35;3.05;;;11.00;99.90;;;;;;4230366;28;20047;-87
2023/01/02 06:11:03;;;;;;;5.72;3.28;;;11.10;99.90;;;;;;4266020;27;20098;-87
2023/01/02 06:13:03;;;;;;;5.07;3.08;;;11.00;99.90;;;;;;4266225;27;20054;-87
2023/01/02 06:15:05;;;;;;;5.35;2.97;;;11.00;99.90;;;;;;4247368;27;20055;-87
2023/01/02 06:17:05;;;;;;;8.93;3.47;;;11.00;99.90;;;;;;4247705;27;20035;-87
2023/01/02 06:19:06;;;;;;;5.75;3.42;;;11.20;99.90;;;;;;4265132;27;20510;-87
2023/01/02 06:21:10;;;;;;;4.95;2.85;;;11.00;99.90;;;;;;4247237;27;20088;-87
2023/01/02 06:23:10;;;;;;;4.30;2.90;;;11.10;99.90;;;;;;4266602;27;20061;-87
2023/01/02 06:25:11;;;;;;;5.90;2.80;;;11.70;99.90;;;;;;4265806;27;20425;-87
2023/01/02 06:27:13;;;;;;;4.28;2.33;;;10.40;99.90;;;;;;4247450;27;20130;-86
2023/01/02 06:29:14;;;;;;;4.82;2.38;;;11.10;99.90;;;;;;4263939;27;20079;-87
2023/01/02 06:31:16;;;;;;;5.03;3.05;;;11.10;99.90;;;;;;4230611;28;20512;-87
2023/01/02 06:33:17;;;;;;;4.22;2.72;;;11.00;99.90;;;;;;4247237;27;20415;-87
2023/01/02 06:35:18;;;;;;;5.38;2.85;;;11.00;99.90;;;;;;4265566;27;20113;-87
2023/01/02 06:37:18;;;;;;;2.72;1.73;;;11.00;99.90;;;;;;4265638;27;20402;-87
2023/01/02 06:39:19;;;;;;;4.50;1.83;;;11.00;99.90;;;;;;4229608;28;20075;-87
2023/01/02 06:41:20;;;;;;;3.38;1.98;;;;;;;;;;4246906;27;20043;-87
2023/01/02 06:43:22;;;;;;;3.65;2.10;;;11.00;99.90;;;;;;4247406;27;20164;-87
2023/01/02 06:45:23;;;;;;;3.88;2.50;;;11.00;99.90;;;;;;4230229;28;20055;-87
2023/01/02 06:47:25;;;;;;;4.50;2.47;;;10.90;99.90;;;;;;4229503;28;20055;-87
2023/01/02 06:49:25;;;;;;;5.35;2.80;;;11.00;99.90;;;;;;4265207;27;20038;-87
2023/01/02 06:51:26;;;;;;;3.95;2.35;;;10.90;99.90;;;;;;4247049;27;20080;-87
2023/01/02 06:53:31;;;;;;;5.65;3.45;;;11.10;99.90;;;;;;4247486;27;20153;-87
2023/01/02 06:55:33;;;;;;;6.15;3.72;;;10.90;99.90;;;;;;4265024;27;20052;-87
2023/01/02 06:57:34;;;;;;;6.05;3.60;;;10.80;99.90;;;;;;4269699;27;20493;-88
2023/01/02 06:59:35;;;;;;;5.85;3.60;;;10.80;99.90;;;;;;4247222;27;20084;-87
2023/01/02 07:01:36;;;;;;;5.90;3.65;;;11.20;99.90;;;;;;4247492;27;20090;-87
2023/01/02 07:03:37;;;;;;;7.30;3.33;;;10.80;99.90;;;;;;4247721;27;20058;-87
2023/01/02 07:05:38;;;;;;;6.10;3.67;;;10.80;99.90;;;;;;4265252;27;20050;-87
2023/01/02 07:07:39;;;;;;;7.90;4.25;;;10.70;99.90;;;;;;4264582;27;20034;-87
2023/01/02 07:09:40;;;;;;;5.32;2.25;;;10.70;99.90;;;;;;4246802;27;20407;-87
2023/01/02 07:11:41;;;;;;;5.78;2.03;;;10.70;99.90;;;;;;4263806;27;20051;-87
2023/01/02 07:13:43;;;;;;;3.75;2.13;;;10.40;99.90;;;;;;4246554;28;20043;-87
2023/01/02 07:15:45;;;;;;;5.20;1.95;;;10.50;99.90;;;;;;4246271;28;20083;-87
2023/01/02 07:17:47;;;;;;;6.45;2.60;;;10.10;99.90;;;;;;4265490;27;20155;-88
2023/01/02 07:19:47;;;;;;;3.65;1.60;;;9.90;99.90;;;;;;4264915;27;20051;-87
2023/01/02 07:21:48;;;;;;;4.53;2.22;;;9.80;99.90;;;;;;4246997;28;20538;-87
2023/01/02 07:23:49;;;;;;;6.40;1.60;;;9.70;99.90;;;;;;4265523;27;20046;-88
2023/01/02 07:25:58;;;;;;;3.90;1.98;;;9.60;99.90;;;;;;4246877;28;20522;-87
2023/01/02 07:28:11;;;;;;;3.17;1.35;;;9.60;99.90;;;;;;4247417;28;20050;-87
2023/01/02 07:30:13;;;;;;;3.00;0.77;;;9.70;99.90;;;;;;4243660;28;20035;-87
2023/01/02 07:32:14;;;;;;;1.27;0.68;;;8.00;99.90;;;;;;4229447;28;20054;-87
2023/01/02 07:34:15;;;;;;;1.35;0.50;;;9.40;99.90;;;;;;4230690;28;20051;-88
2023/01/02 07:36:18;;;;;;;0.93;0.25;;;9.30;99.90;;;;;;4248899;28;20051;-87
2023/01/02 07:38:19;;;;;;;1.23;0.40;;;9.30;99.90;;;;;;4230037;28;20128;-87
2023/01/02 07:40:20;;;;;;;2.05;0.52;;;9.10;99.90;;;;;;4230154;28;20052;-87
2023/01/02 07:42:20;;;;;;;2.03;0.40;;;9.10;99.90;;;;;;4247898;28;20043;-88
2023/01/02 07:44:22;;;;;;;2.08;0.20;;;9.10;99.90;;;;;;4265264;27;20393;-88
2023/01/02 07:46:24;;;;;;;0.65;0.20;;;9.00;99.90;;;;;;4265831;27;20163;-88
2023/01/02 07:48:25;;;;;;;5.60;0.43;;;9.20;99.90;;;;;;4230887;28;20484;-87
2023/01/02 07:50:26;;;;;;;1.20;0.70;;;8.90;99.90;;;;;;4246872;28;20055;-88
2023/01/02 07:52:27;;;;;;;2.42;0.40;;;8.80;99.90;;;;;;4248018;27;20051;-88
2023/01/02 07:54:28;;;;;;;4.07;0.90;;;8.90;99.90;;;;;;4269225;27;20057;-89
2023/01/02 07:56:29;;;;;;;1.98;0.50;;;9.40;99.90;;;;;;4269872;27;20039;-88
2023/01/02 07:58:30;;;;;;;1.05;0.50;;;8.80;99.90;;;;;;4250591;27;20054;-89
2023/01/02 08:00:32;;;;;;;0.55;0.30;;;8.70;99.90;;;;;;4230180;28;20519;-88
2023/01/02 08:02:33;;;;;;;1.23;0.47;;;8.70;99.90;;;;;;4267382;27;20526;-88
2023/01/02 08:04:35;;;;;;;1.50;0.50;;;8.70;99.90;;;;;;4233753;28;20051;-89
2023/01/02 08:06:40;;;;;;;1.20;0.40;;;8.70;99.90;;;;;;4269180;27;20038;-88
2023/01/02 08:08:42;;;;;;;3.40;0.50;;;8.70;99.90;;;;;;4268876;27;20042;-88
2023/01/02 08:10:43;;;;;;;12.95;0.70;;;8.70;99.90;;;;;;4267953;27;20103;-88
2023/01/02 08:12:43;;;;;;;3.42;0.52;;;8.90;99.90;;;;;;4268869;27;20454;-88
2023/01/02 08:14:44;;;;;;;2.00;0.38;;;8.70;99.90;;;;;;4269150;27;20043;-88
2023/01/02 08:16:45;;;;;;;4.50;0.50;;;8.60;99.90;;;;;;4269115;27;20035;-88
2023/01/02 08:18:46;;;;;;;2.70;0.40;;;8.60;99.90;;;;;;4268097;27;20065;-87
2023/01/02 08:20:47;;;;;;;1.88;0.47;;;8.70;99.90;;;;;;4233257;28;20043;-88
2023/01/02 08:22:49;;;;;;;1.17;0.30;;;8.60;99.90;;;;;;4233668;28;21026;-88
2023/01/02 08:24:50;;;;;;;2.20;0.70;;;8.70;99.90;;;;;;4234288;28;20048;-88
2023/01/02 08:26:51;;;;;;;4.45;0.40;;;8.60;99.90;;;;;;4269699;27;20069;-87
2023/01/02 08:28:53;;;;;;;2.35;0.82;;;8.60;99.90;;;;;;4253038;27;20039;-89
2023/01/02 08:30:54;;;;;;;1.48;0.43;;;7.00;99.90;;;;;;4253570;27;20406;-88
2023/01/02 08:32:56;;;;;;;1.75;0.52;;;8.50;99.90;;;;;;4254820;27;20051;-88
2023/01/02 08:34:57;;;;;;;4.78;0.80;;;8.80;99.90;;;;;;4246614;28;20049;-87
2023/01/02 08:36:59;;;;;;;1.92;0.90;;;8.50;99.90;;;;;;4237052;28;20039;-88
2023/01/02 08:39:01;;;;;;;4.25;0.60;;;8.50;99.90;;;;;;4262983;27;20054;-88
2023/01/02 08:41:04;;;;;;;1.40;0.85;;;8.60;99.90;;;;;;4259458;27;20071;-87
2023/01/02 08:43:09;;;;;;;3.80;0.98;;;7.70;99.90;;;;;;4248437;27;20051;-89
2023/01/02 08:45:10;;;;;;;2.72;0.60;;;8.50;99.90;;;;;;4235368;28;20047;-88
2023/01/02 08:47:34;;;;;;;5.68;1.00;;;8.50;99.90;;;;;;4247188;27;20431;-88
2023/01/02 08:49:44;;;;;;;4.20;0.85;;;8.50;99.90;;;;;;4252115;27;20078;-88
2023/01/02 08:51:53;;;;;;;5.80;1.52;;;8.50;99.90;;;;;;4268820;27;20038;-89
2023/01/02 08:54:06;;;;;;;3.60;1.30;;;8.50;99.90;;;;;;4252906;27;20050;-88
2023/01/02 08:56:28;;;;;;;2.22;0.90;;;8.50;99.90;;;;;;4217677;28;20089;-88
2023/01/02 08:58:28;;;;;;;0.95;0.80;;;8.50;99.90;;;;;;4239917;27;20047;-89
2023/01/02 09:00:31;;;;;;;2.85;0.82;;;8.70;99.90;;;;;;4234759;28;20058;-88
2023/01/02 09:02:32;;;;;;;1.20;0.88;;;8.50;99.90;;;;;;4235222;28;20059;-88
2023/01/02 09:04:32;;;;;;;2.53;0.70;;;8.50;99.90;;;;;;4218408;28;20519;-88
2023/01/02 09:06:35;;;;;;;4.70;0.68;;;8.40;99.90;;;;;;4217656;28;20052;-87
2023/01/02 09:08:36;;;;;;;4.65;0.95;;;8.50;99.90;;;;;;4239155;28;20079;-89
2023/01/02 09:10:37;;;;;;;3.58;0.63;;;8.40;99.90;;;;;;4235314;27;20046;-89
2023/01/02 09:12:38;;;;;;;3.20;0.80;;;8.40;99.90;;;;;;4236098;28;20054;-89
2023/01/02 09:14:39;;;;;;;4.50;1.00;;;8.40;99.90;;;;;;4217631;28;20060;-89
2023/01/02 09:16:48;;;;;;;2.78;0.80;;;8.40;99.90;;;;;;4234376;28;20127;-89
2023/01/02 09:18:49;;;;;;;1.23;0.80;;;8.40;99.90;;;;;;4218343;28;20039;-87
2023/01/02 09:20:50;;;;;;;2.40;1.23;;;7.30;99.90;;;;;;4232879;28;20127;-86
2023/01/02 09:22:50;;;;;;;2.05;0.90;;;8.50;99.90;;;;;;4220553;28;20040;-87
2023/01/02 09:24:53;;;;;;;3.15;1.08;;;9.00;99.90;;;;;;4233248;28;20059;-87
2023/01/02 09:26:54;;;;;;;4.63;1.08;;;8.50;99.90;;;;;;4251409;27;20116;-87
2023/01/02 09:28:55;;;;;;;2.95;0.90;;;8.30;99.90;;;;;;4251344;27;20039;-87
2023/01/02 09:30:58;;;;;;;2.63;0.73;;;8.40;99.90;;;;;;4250946;27;20031;-86
2023/01/02 09:33:15;;;;;;;;;;;;;;;;;;;;;
2023/01/02 09:35:16;;;;;;;4.20;1.25;;;8.40;99.90;;;;;;4252188;27;20050;-87
2023/01/02 09:37:18;;;;;;;2.00;0.90;;;8.30;99.90;;;;;;4250572;27;20039;-86
2023/01/02 09:39:19;;;;;;;0.95;0.70;;;8.40;99.90;;;;;;4248199;27;20051;-85
2023/01/02 09:41:27;;;;;;;2.58;0.63;;;6.90;99.90;;;;;;4251284;27;20402;-85
2023/01/02 09:43:50;;;;;;;7.90;0.90;;;8.40;99.90;;;;;;4220668;28;20048;-87
2023/01/02 09:45:56;;;;;;;4.10;1.48;;;8.50;99.90;;;;;;4249897;27;20081;-88
2023/01/02 09:47:59;;;;;;;3.22;0.90;;;8.50;99.90;;;;;;4245400;27;20101;-88
2023/01/02 09:50:02;;;;;;;2.20;0.88;;;8.50;99.90;;;;;;4249486;27;20070;-87
2023/01/02 09:52:06;;;;;;;3.92;0.93;;;8.50;99.90;;;;;;4250159;27;20046;-86
2023/01/02 09:54:32;;;;;;;1.00;0.77;;;8.40;99.90;;;;;;4250322;27;20547;-85
2023/01/02 09:56:37;;;;;;;3.58;1.05;;;8.40;99.90;;;;;;4250750;27;20047;-87
2023/01/02 09:59:00;;;;;;;2.17;1.15;;;8.40;99.90;;;;;;4236282;28;20043;-87
2023/01/02 10:01:47;;;;;;;3.40;0.80;;;8.50;99.90;;;;;;4234331;28;20043;-87
2023/01/02 10:04:02;;;;;;;3.63;1.00;;;8.20;99.90;;;;;;4218594;27;20077;-87
2023/01/02 10:06:12;;;;;;;4.80;1.30;;;8.50;99.90;;;;;;4240969;28;20051;-87
2023/01/02 10:08:35;;;;;;;3.75;1.10;;;8.40;99.90;;;;;;4253040;27;20383;-87
2023/01/02 10:10:47;;;;;;;4.70;1.60;;;8.50;99.90;;;;;;4250378;27;20426;-87
2023/01/02 10:13:26;;;;;;;3.25;1.25;;;8.40;99.90;;;;;;4251819;27;20505;-87
2023/01/02 10:15:28;;;;;;;2.03;0.98;;;8.50;99.90;;;;;;4250205;27;20043;-87
2023/01/02 10:17:38;;;;;;;3.97;1.45;;;8.40;99.90;;;;;;4237845;27;20407;-87
2023/01/02 10:19:57;;;;;;;2.53;0.88;;;8.50;99.90;;;;;;4217051;28;20539;-88
2023/01/02 10:22:00;;;;;;;3.25;1.13;;;8.40;99.90;;;;;;4237545;27;20043;-87
2023/01/02 10:24:14;;;;;;;2.78;1.05;;;8.50;99.90;;;;;;4250728;27;20538;-90
2023/01/02 10:26:17;;;;;;;1.13;0.82;;;8.50;99.90;;;;;;4234000;28;20081;-83
2023/01/02 10:28:40;;;;;;;2.15;0.80;;;9.30;99.90;;;;;;4251318;27;20452;-84
2023/01/02 10:30:49;;;;;;;1.17;0.80;;;8.50;99.90;;;;;;4248269;27;20040;-88
2023/01/02 10:33:08;;;;;;;4.85;0.85;;;8.50;99.90;;;;;;4234376;28;20051;-87
2023/01/02 10:35:47;;;;;;;3.03;0.70;;;8.50;99.90;;;;;;4235131;28;20044;-88
2023/01/02 10:38:15;;;;;;;1.48;0.63;;;8.50;99.90;;;;;;4235277;28;20035;-87
2023/01/02 10:40:16;;;;;;;1.08;0.63;;;8.50;99.90;;;;;;4235708;28;20047;-87
2023/01/02 10:42:33;;;;;;;3.05;0.60;;;8.50;99.90;;;;;;4242301;28;20036;-88
2023/01/02 10:44:38;;;;;;;3.75;0.73;;;8.60;99.90;;;;;;4251426;28;20032;-87
2023/01/02 10:46:47;;;;;;;1.95;0.70;;;8.50;99.90;;;;;;4252417;27;20095;-87
2023/01/02 10:49:08;;;;;;;1.15;0.52;;;8.50;99.90;;;;;;4234111;28;20023;-88
2023/01/02 10:51:31;;;;;;;4.97;0.80;;;8.50;99.90;;;;;;4249675;28;20073;-87
2023/01/02 10:53:38;;;;;;;2.40;0.55;;;8.50;99.90;;;;;;4233812;28;20028;-88
2023/01/02 10:55:43;;;;;;;3.10;0.80;;;8.50;99.90;;;;;;4234428;28;20048;-88
2023/01/02 10:57:49;;;;;;;1.13;0.50;;;8.40;99.90;;;;;;4249756;28;20034;-88
2023/01/02 11:00:03;;;;;;;3.67;1.20;;;8.40;99.90;;;;;;4246832;28;20414;-88